createdAt,value
2022-08-17T00:00:43.466Z,53.33
2022-08-17T00:03:25.806Z,52.00
2022-08-17T00:06:13.934Z,50.80
2022-08-17T00:08:46.353Z,52.45
2022-08-17T00:11:22.213Z,55.05
2022-08-17T00:13:56.016Z,54.78
2022-08-17T00:16:56.264Z,52.72
2022-08-17T00:19:26.104Z,53.42
2022-08-17T00:22:31.643Z,55.55
2022-08-17T00:24:45.539Z,58.95
2022-08-17T00:27:13.133Z,60.20
2022-08-17T00:29:41.166Z,55.92
2022-08-17T00:33:11.612Z,63.67
2022-08-17T00:34:56.474Z,57.47
2022-08-17T00:37:24.076Z,62.60
2022-08-17T00:39:51.931Z,64.57
2022-08-17T00:42:19.866Z,66.05
2022-08-17T00:44:47.903Z,59.13
2022-08-17T00:47:15.646Z,62.30
2022-08-17T00:49:43.466Z,63.28
2022-08-17T00:52:20.572Z,66.13
2022-08-17T00:54:52.355Z,70.03
2022-08-17T00:57:34.815Z,70.72
2022-08-17T01:00:26.450Z,74.78
2022-08-17T01:03:19.488Z,69.88
2022-08-17T01:05:50.163Z,77.30
2022-08-17T01:08:22.535Z,75.63
2022-08-17T01:10:58.159Z,72.18
2022-08-17T01:13:41.109Z,81.53
2022-08-17T01:16:32.088Z,75.97
2022-08-17T01:19:09.251Z,74.28
2022-08-17T01:22:04.082Z,80.30
2022-08-17T01:24:34.154Z,84.75
2022-08-17T01:27:02.816Z,92.20
2022-08-17T01:29:42.879Z,90.13
2022-08-17T01:32:10.702Z,96.03
2022-08-17T01:34:50.596Z,94.03
2022-08-17T01:37:32.600Z,90.75
2022-08-17T01:40:16.146Z,105.22
2022-08-17T01:42:56.817Z,94.10
2022-08-17T01:45:33.732Z,103.28
2022-08-17T01:48:01.532Z,95.90
2022-08-17T01:50:37.892Z,97.05
2022-08-17T01:53:22.505Z,95.15
2022-08-17T01:55:55.099Z,97.47
2022-08-17T01:58:23.308Z,101.88
2022-08-17T02:01:00.649Z,101.63
2022-08-17T02:03:30.232Z,99.32
2022-08-17T02:05:58.243Z,109.05
2022-08-17T02:08:37.190Z,109.68
2022-08-17T02:11:14.639Z,100.57
2022-08-17T02:13:45.510Z,110.20
2022-08-17T02:16:13.790Z,114.75
2022-08-17T02:18:41.659Z,110.95
2022-08-17T02:21:09.902Z,111.75
2022-08-17T02:23:42.165Z,106.43
2022-08-17T02:26:10.568Z,112.43
2022-08-17T02:28:53.596Z,101.68
2022-08-17T02:31:21.395Z,100.43
2022-08-17T02:34:00.330Z,111.38
2022-08-17T02:36:36.414Z,101.30
2022-08-17T02:39:09.997Z,106.10
2022-08-17T02:41:39.878Z,103.45
2022-08-17T02:44:08.189Z,101.35
2022-08-17T02:46:36.060Z,108.43
2022-08-17T02:49:05.206Z,114.20
2022-08-17T02:51:34.977Z,106.10
2022-08-17T02:54:40.076Z,107.20
2022-08-17T02:56:51.592Z,101.35
2022-08-17T02:59:19.218Z,106.65
2022-08-17T03:01:47.027Z,98.95
2022-08-17T03:04:15.984Z,98.18
2022-08-17T03:06:43.691Z,99.70
2022-08-17T03:09:11.380Z,94.72
2022-08-17T03:11:39.172Z,96.53
2022-08-17T03:14:06.765Z,90.40
2022-08-17T03:16:34.519Z,102.25
2022-08-17T03:19:02.385Z,101.43
2022-08-17T03:21:30.073Z,90.82
2022-08-17T03:23:58.164Z,95.40
2022-08-17T03:26:25.902Z,93.30
2022-08-17T03:28:57.689Z,95.43
2022-08-17T03:31:25.276Z,89.95
2022-08-17T03:33:52.924Z,93.43
2022-08-17T03:36:20.565Z,94.75
2022-08-17T03:38:48.199Z,102.03
2022-08-17T03:41:18.879Z,88.32
2022-08-17T03:43:49.205Z,89.50
2022-08-17T03:46:35.727Z,98.57
2022-08-17T03:49:27.223Z,92.80
2022-08-17T03:52:14.850Z,88.57
2022-08-17T03:55:06.030Z,90.22
2022-08-17T03:57:33.701Z,94.28
2022-08-17T04:00:01.449Z,96.18
2022-08-17T04:02:39.645Z,90.60
2022-08-17T04:05:08.074Z,96.40
2022-08-17T04:07:35.991Z,96.15
2022-08-17T04:10:04.245Z,95.85
2022-08-17T04:12:49.258Z,94.50
2022-08-17T04:15:18.575Z,97.40
2022-08-17T04:17:46.301Z,108.25
2022-08-17T04:20:16.638Z,107.40
2022-08-17T04:23:00.147Z,99.35
2022-08-17T04:25:29.710Z,101.78
2022-08-17T04:27:59.051Z,99.97
2022-08-17T04:30:31.211Z,100.82
2022-08-17T04:33:08.824Z,96.97
2022-08-17T04:35:46.992Z,96.55
2022-08-17T04:38:19.551Z,107.07
2022-08-17T04:41:07.511Z,97.68
2022-08-17T04:43:37.687Z,97.80
2022-08-17T04:46:09.357Z,93.00
2022-08-17T04:48:42.699Z,103.35
2022-08-17T04:51:20.975Z,102.78
2022-08-17T04:53:54.335Z,101.75
2022-08-17T04:56:25.867Z,94.47
2022-08-17T04:58:57.757Z,112.75
2022-08-17T05:01:28.958Z,115.13
2022-08-17T05:04:00.151Z,106.00
2022-08-17T05:06:46.982Z,94.32
2022-08-17T05:09:14.681Z,112.63
2022-08-17T05:11:45.031Z,106.68
2022-08-17T05:14:13.916Z,110.10
2022-08-17T05:16:41.813Z,121.35
2022-08-17T05:19:09.601Z,119.60
2022-08-17T05:21:37.230Z,110.15
2022-08-17T05:24:07.144Z,109.97
2022-08-17T05:26:52.731Z,109.68
2022-08-17T05:29:20.411Z,97.35
2022-08-17T05:31:48.583Z,97.60
2022-08-17T05:34:16.711Z,94.53
2022-08-17T05:36:45.243Z,106.50
2022-08-17T05:39:16.385Z,107.70
2022-08-17T05:41:47.965Z,97.82
2022-08-17T05:44:17.013Z,104.93
2022-08-17T05:46:50.437Z,86.47
2022-08-17T05:49:27.141Z,94.57
2022-08-17T05:52:32.246Z,96.38
2022-08-17T05:55:17.951Z,92.60
2022-08-17T05:58:41.909Z,95.28
2022-08-17T06:01:44.137Z,90.00
2022-08-17T06:04:42.237Z,84.38
2022-08-17T06:07:46.095Z,89.90
2022-08-17T06:10:27.043Z,87.97
2022-08-17T06:13:18.682Z,94.45
2022-08-17T06:16:05.281Z,84.57
2022-08-17T06:19:34.392Z,88.85
2022-08-17T06:22:05.828Z,89.85
2022-08-17T06:24:48.071Z,95.15
2022-08-17T06:27:57.470Z,93.63
2022-08-17T06:30:41.387Z,82.03
2022-08-17T06:33:29.725Z,79.75
2022-08-17T06:36:26.420Z,97.75
2022-08-17T06:39:09.062Z,93.22
2022-08-17T06:41:54.776Z,87.05
2022-08-17T06:45:18.870Z,92.85
2022-08-17T06:48:25.646Z,90.55
2022-08-17T06:51:17.057Z,84.03
2022-08-17T06:54:06.857Z,79.07
2022-08-17T06:56:55.410Z,81.53
2022-08-17T06:59:56.670Z,85.70
2022-08-17T07:03:03.055Z,89.53
2022-08-17T07:05:46.558Z,90.30
2022-08-17T07:08:29.692Z,83.97
2022-08-17T07:11:05.439Z,78.00
2022-08-17T07:14:17.408Z,87.95
2022-08-17T07:16:54.146Z,88.75
2022-08-17T07:19:25.777Z,91.03
2022-08-17T07:22:20.903Z,73.70
2022-08-17T07:24:57.393Z,79.50
2022-08-17T07:27:38.482Z,79.78
2022-08-17T07:30:27.552Z,69.38
2022-08-17T07:33:02.973Z,66.10
2022-08-17T07:35:37.968Z,85.57
2022-08-17T07:38:24.245Z,84.05
2022-08-17T07:40:58.209Z,83.18
2022-08-17T07:43:40.452Z,85.93
2022-08-17T07:46:43.760Z,74.72
2022-08-17T07:49:12.581Z,76.43
2022-08-17T07:51:43.283Z,83.25
2022-08-17T07:54:22.461Z,83.28
2022-08-17T07:56:53.592Z,85.35
2022-08-17T07:59:33.734Z,77.45
2022-08-17T08:02:06.133Z,82.63
2022-08-17T08:05:00.563Z,77.10
2022-08-17T08:07:35.622Z,72.40
2022-08-17T08:10:11.342Z,72.35
2022-08-17T08:12:48.169Z,79.93
2022-08-17T08:15:25.652Z,68.55
2022-08-17T08:18:04.134Z,74.80
2022-08-17T08:20:53.535Z,72.30
2022-08-17T08:23:37.031Z,71.07
2022-08-17T08:26:35.275Z,64.30
2022-08-17T08:29:15.293Z,66.72
2022-08-17T08:32:13.709Z,64.25
2022-08-17T08:35:13.177Z,65.32
2022-08-17T08:38:14.448Z,63.35
2022-08-17T08:41:00.338Z,69.30
2022-08-17T08:43:55.299Z,66.13
2022-08-17T08:46:41.090Z,67.10
2022-08-17T08:50:01.885Z,65.65
2022-08-17T08:52:58.119Z,70.85
2022-08-17T08:55:56.573Z,69.10
2022-08-17T08:58:50.438Z,69.75
2022-08-17T09:01:31.332Z,81.05
2022-08-17T09:04:25.552Z,73.10
2022-08-17T09:07:36.766Z,71.75
2022-08-17T09:10:16.508Z,59.75
2022-08-17T09:13:30.248Z,71.95
2022-08-17T09:16:05.442Z,70.93
2022-08-17T09:19:00.743Z,70.13
2022-08-17T09:21:47.977Z,75.63
2022-08-17T09:24:29.804Z,72.15
2022-08-17T09:27:13.460Z,71.03
2022-08-17T09:29:55.044Z,70.35
2022-08-17T09:32:32.676Z,79.78
2022-08-17T09:35:14.241Z,80.18
2022-08-17T09:38:09.916Z,75.03
2022-08-17T09:40:59.350Z,75.65
2022-08-17T09:43:43.815Z,80.45
2022-08-17T09:46:53.486Z,83.18
2022-08-17T09:49:49.683Z,74.68
2022-08-17T09:52:24.664Z,85.13
2022-08-17T09:54:56.309Z,80.03
2022-08-17T09:57:44.037Z,81.70
2022-08-17T10:00:33.280Z,75.97
2022-08-17T10:03:00.846Z,81.03
2022-08-17T10:06:06.839Z,74.50
2022-08-17T10:08:53.137Z,72.05
2022-08-17T10:12:10.089Z,69.50
2022-08-17T10:15:11.618Z,67.28
2022-08-17T10:18:22.578Z,73.53
2022-08-17T10:21:26.250Z,73.90
2022-08-17T10:24:21.380Z,71.32
2022-08-17T10:26:57.040Z,68.88
2022-08-17T10:29:44.162Z,69.78
2022-08-17T10:32:32.839Z,63.47
2022-08-17T10:35:16.815Z,64.80
2022-08-17T10:38:25.449Z,70.45
2022-08-17T10:41:09.743Z,74.82
2022-08-17T10:44:38.414Z,70.90
2022-08-17T10:46:57.371Z,74.47
2022-08-17T10:49:33.901Z,71.47
2022-08-17T10:52:24.977Z,73.65
2022-08-17T10:54:57.861Z,80.28
2022-08-17T10:57:38.683Z,69.07
2022-08-17T11:00:40.847Z,77.45
2022-08-17T11:03:23.555Z,75.00
2022-08-17T11:06:37.459Z,80.57
2022-08-17T11:09:41.332Z,71.70
2022-08-17T11:12:37.697Z,79.75
2022-08-17T11:18:54.457Z,83.40
2022-08-17T11:21:58.369Z,87.13
2022-08-17T11:24:47.906Z,87.88
2022-08-17T11:27:27.937Z,83.45
2022-08-17T11:30:02.130Z,84.13
2022-08-17T11:32:54.589Z,78.50
2022-08-17T11:35:22.664Z,67.53
2022-08-17T11:38:07.765Z,56.42
2022-08-17T11:41:27.415Z,49.13
2022-08-17T11:44:16.045Z,48.17
2022-08-17T11:47:57.019Z,51.22
2022-08-17T11:51:15.500Z,43.20
2022-08-17T11:54:31.735Z,43.38
2022-08-17T11:56:54.589Z,47.30
2022-08-17T11:59:36.987Z,48.13
2022-08-17T12:02:38.749Z,43.97
2022-08-17T12:05:16.960Z,45.00
2022-08-17T12:08:06.274Z,38.40
2022-08-17T12:10:41.323Z,37.85
2022-08-17T12:13:16.146Z,39.13
2022-08-17T12:15:50.641Z,41.97
2022-08-17T12:18:30.075Z,41.08
2022-08-17T12:21:22.259Z,40.78
2022-08-17T12:24:10.409Z,38.78
2022-08-17T12:26:38.323Z,37.30
2022-08-17T12:29:18.223Z,44.53
2022-08-17T12:32:05.840Z,38.30
2022-08-17T12:34:42.426Z,42.60
2022-08-17T12:37:21.440Z,41.72
2022-08-17T12:39:57.637Z,39.47
2022-08-17T12:42:34.863Z,47.35
2022-08-17T12:45:08.201Z,52.22
2022-08-17T12:47:37.987Z,51.50
2022-08-17T12:50:28.558Z,66.43
2022-08-17T12:53:02.062Z,62.63
2022-08-17T12:55:36.709Z,66.38
2022-08-17T12:58:05.059Z,67.65
2022-08-17T13:00:47.577Z,67.32
2022-08-17T13:03:22.218Z,63.72
2022-08-17T13:05:52.861Z,67.28
2022-08-17T13:08:39.396Z,59.15
2022-08-17T13:11:14.647Z,59.30
2022-08-17T13:14:09.820Z,50.47
2022-08-17T13:16:37.776Z,61.10
2022-08-17T13:19:15.409Z,59.13
2022-08-17T13:22:04.224Z,55.15
2022-08-17T13:24:38.094Z,50.97
2022-08-17T13:27:10.380Z,44.15
2022-08-17T13:29:51.167Z,55.53
2022-08-17T13:32:33.481Z,53.58
2022-08-17T13:35:14.123Z,49.33
2022-08-17T13:38:01.728Z,51.83
2022-08-17T13:40:50.041Z,49.20
2022-08-17T13:43:44.879Z,50.65
2022-08-17T13:46:22.401Z,52.10
2022-08-17T13:49:12.050Z,48.72
2022-08-17T13:51:46.561Z,46.28
2022-08-17T13:54:34.234Z,42.90
2022-08-17T13:57:23.610Z,51.53
2022-08-17T13:59:57.311Z,47.33
2022-08-17T14:02:27.938Z,55.55
2022-08-17T14:04:58.495Z,52.95
2022-08-17T14:07:32.526Z,50.78
2022-08-17T14:10:15.786Z,63.35
2022-08-17T14:12:45.130Z,51.90
2022-08-17T14:15:16.303Z,54.58
2022-08-17T14:17:44.385Z,59.55
2022-08-17T14:20:13.825Z,50.58
2022-08-17T14:22:49.497Z,55.53
2022-08-17T14:25:25.131Z,59.63
2022-08-17T14:30:29.651Z,57.35
2022-08-17T14:32:58.768Z,57.03
2022-08-17T14:35:28.147Z,48.40
2022-08-17T14:37:56.407Z,56.38
2022-08-17T14:40:25.293Z,58.95
2022-08-17T14:42:55.613Z,51.65
2022-08-17T14:45:30.389Z,53.42
2022-08-17T14:48:09.723Z,46.55
2022-08-17T14:50:41.131Z,50.13
2022-08-17T14:53:12.508Z,40.22
2022-08-17T14:55:40.836Z,30.20
2022-08-17T14:58:09.259Z,33.38
2022-08-17T15:00:40.885Z,35.83
2022-08-17T15:03:08.619Z,35.90
2022-08-17T15:05:38.815Z,35.65
2022-08-17T15:08:07.431Z,37.10
2022-08-17T15:10:35.898Z,36.60
2022-08-17T15:13:03.921Z,36.42
2022-08-17T15:15:31.852Z,37.13
2022-08-17T15:18:00.030Z,32.13
2022-08-17T15:20:30.033Z,36.97
2022-08-17T15:22:59.218Z,30.17
2022-08-17T15:25:31.922Z,30.58
2022-08-17T15:28:00.693Z,31.98
2022-08-17T15:30:28.935Z,36.08
2022-08-17T15:32:59.185Z,29.55
2022-08-17T15:35:32.816Z,33.97
2022-08-17T15:38:10.743Z,35.75
2022-08-17T15:40:44.304Z,35.83
2022-08-17T15:43:27.558Z,35.58
2022-08-17T15:46:06.955Z,33.92
2022-08-17T15:48:41.907Z,32.78
2022-08-17T15:51:25.402Z,30.75
2022-08-17T15:54:00.392Z,32.25
2022-08-17T15:56:32.879Z,33.45
2022-08-17T15:59:01.139Z,28.63
2022-08-17T16:03:01.011Z,29.70
2022-08-17T16:04:26.863Z,29.98
2022-08-17T16:07:00.285Z,26.45
2022-08-17T16:09:28.317Z,25.88
2022-08-17T16:11:56.570Z,28.67
2022-08-17T16:14:32.464Z,33.47
2022-08-17T16:17:04.594Z,38.55
2022-08-17T16:19:34.304Z,39.00
2022-08-17T16:22:03.023Z,33.97
2022-08-17T16:24:31.959Z,32.60
2022-08-17T16:27:00.088Z,39.92
2022-08-17T16:29:28.354Z,45.55
2022-08-17T16:31:57.434Z,40.65
2022-08-17T16:34:25.216Z,53.83
2022-08-17T16:36:54.920Z,55.35
2022-08-17T16:39:27.492Z,56.10
2022-08-17T16:41:56.248Z,56.72
2022-08-17T16:44:25.713Z,46.25
2022-08-17T16:46:53.519Z,40.72
2022-08-17T16:49:35.403Z,33.13
2022-08-17T16:52:12.617Z,22.48
2022-08-17T16:54:43.936Z,27.27
2022-08-17T16:57:14.230Z,16.40
2022-08-17T16:59:47.799Z,13.30
2022-08-17T17:02:43.594Z,11.60
2022-08-17T17:05:20.057Z,11.45
2022-08-17T17:08:08.879Z,13.15
2022-08-17T17:10:49.762Z,12.25
2022-08-17T17:13:39.020Z,12.55
2022-08-17T17:16:23.962Z,12.73
2022-08-17T17:19:34.513Z,17.00
2022-08-17T17:22:25.211Z,16.90
2022-08-17T17:25:17.973Z,16.00
2022-08-17T17:27:52.940Z,14.27
2022-08-17T17:30:24.831Z,19.00
2022-08-17T17:33:36.843Z,19.80
2022-08-17T17:36:30.039Z,22.20
2022-08-17T17:39:29.207Z,22.55
2022-08-17T17:42:07.513Z,24.20
2022-08-17T17:44:43.741Z,26.67
2022-08-17T17:47:13.354Z,26.25
2022-08-17T17:49:45.027Z,30.25
2022-08-17T17:52:38.372Z,30.17
2022-08-17T17:55:44.373Z,32.67
2022-08-17T17:58:57.914Z,32.40
2022-08-17T18:01:54.195Z,31.80
2022-08-17T18:04:32.978Z,35.40
2022-08-17T18:07:30.569Z,38.50
2022-08-17T18:10:19.519Z,38.40
2022-08-17T18:13:11.139Z,35.33
2022-08-17T18:15:53.059Z,35.38
2022-08-17T18:18:37.811Z,26.20
2022-08-17T18:21:16.291Z,24.63
2022-08-17T18:24:03.881Z,20.95
2022-08-17T18:26:45.035Z,24.05
2022-08-17T18:29:28.044Z,17.90
2022-08-17T18:32:22.015Z,13.98
2022-08-17T18:34:55.633Z,14.88
2022-08-17T18:38:20.406Z,16.23
2022-08-17T18:41:16.062Z,13.80
2022-08-17T18:43:53.523Z,12.20
2022-08-17T18:46:36.581Z,10.82
2022-08-17T18:49:29.159Z,12.40
2022-08-17T18:52:14.045Z,10.18
2022-08-17T18:55:11.164Z,13.18
2022-08-17T18:57:45.975Z,10.82
2022-08-17T19:00:36.929Z,10.73
2022-08-17T19:03:26.125Z,11.32
2022-08-17T19:05:57.697Z,10.27
2022-08-17T19:08:28.751Z,10.35
2022-08-17T19:11:20.960Z,10.52
2022-08-17T19:14:12.521Z,10.27
2022-08-17T19:17:12.629Z,10.27
2022-08-17T19:20:05.004Z,10.23
2022-08-17T19:23:09.216Z,10.88
2022-08-17T19:25:46.306Z,9.73
2022-08-17T19:28:23.788Z,10.13
2022-08-17T19:31:01.961Z,9.20
2022-08-17T19:33:31.424Z,11.63
2022-08-17T19:36:15.530Z,9.50
2022-08-17T19:39:04.861Z,9.73
2022-08-17T19:41:54.667Z,10.00
2022-08-17T19:44:46.514Z,9.70
2022-08-17T19:48:05.101Z,12.90
2022-08-17T19:50:45.847Z,13.40
2022-08-17T19:54:01.746Z,12.85
2022-08-17T19:56:47.667Z,13.55
2022-08-17T20:00:18.176Z,15.70
2022-08-17T20:03:19.483Z,17.08
2022-08-17T20:06:14.025Z,17.98
2022-08-17T20:09:17.883Z,19.13
2022-08-17T20:12:04.151Z,17.15
2022-08-17T20:14:53.574Z,16.33
2022-08-17T20:17:30.581Z,21.20
2022-08-17T20:20:58.640Z,20.45
2022-08-17T20:23:52.133Z,22.83
2022-08-17T20:26:33.859Z,24.27
2022-08-17T20:29:37.162Z,23.83
2022-08-17T20:32:22.108Z,23.83
2022-08-17T20:35:09.061Z,22.30
2022-08-17T20:37:44.213Z,21.95
2022-08-17T20:40:23.403Z,20.05
2022-08-17T20:42:51.122Z,26.75
2022-08-17T20:45:21.729Z,23.30
2022-08-17T20:48:33.318Z,21.73
2022-08-17T20:50:58.991Z,24.30
2022-08-17T20:53:49.728Z,18.90
2022-08-17T20:56:43.143Z,20.55
2022-08-17T20:59:25.458Z,21.88
2022-08-17T21:02:18.284Z,21.98
2022-08-17T21:04:54.489Z,23.52
2022-08-17T21:07:43.526Z,20.92
2022-08-17T21:10:35.647Z,22.50
2022-08-17T21:13:13.450Z,19.52
2022-08-17T21:16:03.257Z,24.33
2022-08-17T21:19:18.712Z,24.80
2022-08-17T21:22:06.742Z,19.20
2022-08-17T21:25:07.060Z,22.45
2022-08-17T21:27:42.747Z,18.48
2022-08-17T21:30:11.847Z,19.70
2022-08-17T21:32:42.093Z,18.42
2022-08-17T21:35:28.898Z,20.75
2022-08-17T21:38:04.422Z,25.20
2022-08-17T21:40:33.891Z,26.15
2022-08-17T21:43:23.829Z,28.13
2022-08-17T21:46:45.844Z,27.35
2022-08-17T21:49:17.973Z,27.70
2022-08-17T21:51:54.358Z,28.95
2022-08-17T21:54:35.497Z,23.70
2022-08-17T21:57:08.062Z,29.30
2022-08-17T21:59:39.939Z,28.85
2022-08-17T22:02:22.361Z,22.42
2022-08-17T22:05:07.524Z,26.17
2022-08-17T22:07:47.638Z,23.20
2022-08-17T22:10:44.565Z,20.65
2022-08-17T22:13:17.591Z,20.35
2022-08-17T22:16:27.863Z,19.38
2022-08-17T22:18:59.010Z,21.75
2022-08-17T22:21:27.249Z,23.65
2022-08-17T22:24:21.532Z,25.52
2022-08-17T22:27:03.435Z,24.48
2022-08-17T22:29:57.570Z,28.25
2022-08-17T22:32:41.658Z,26.23
2022-08-17T22:35:43.676Z,27.17
2022-08-17T22:38:20.663Z,25.13
2022-08-17T22:41:34.370Z,30.88
2022-08-17T22:44:49.037Z,32.40
2022-08-17T22:47:17.046Z,35.85
2022-08-17T22:49:57.719Z,35.13
2022-08-17T22:52:35.684Z,31.85
2022-08-17T22:55:31.648Z,30.17
2022-08-17T22:58:19.614Z,35.53
2022-08-17T23:00:49.728Z,34.13
2022-08-17T23:03:22.803Z,32.33
2022-08-17T23:06:08.345Z,37.72
2022-08-17T23:08:49.911Z,40.47
2022-08-17T23:11:17.555Z,38.95
2022-08-17T23:13:45.772Z,45.35
2022-08-17T23:16:14.892Z,50.00
2022-08-17T23:18:42.601Z,46.22
2022-08-17T23:21:10.229Z,47.75
2022-08-17T23:23:43.628Z,53.70
2022-08-17T23:26:11.698Z,50.75
2022-08-17T23:28:43.811Z,49.33
2022-08-17T23:31:13.665Z,46.00
2022-08-17T23:33:42.249Z,49.78
2022-08-17T23:36:15.349Z,48.72
2022-08-17T23:38:46.659Z,52.33
2022-08-17T23:41:18.157Z,59.75
2022-08-17T23:43:49.773Z,55.55
2022-08-17T23:46:18.245Z,61.47
2022-08-17T23:48:48.495Z,58.15
2022-08-17T23:51:33.447Z,61.05
2022-08-17T23:54:32.600Z,54.28
2022-08-17T23:57:02.575Z,46.05
2022-08-17T23:59:30.385Z,40.22
